Time;durP1;ratioP1;P1;durP2;ratioP2;P2;SDS_P1;SDS_P2;PMS_P1;PMS_P2;Temp;Humidity;BMP_temperature;BMP_pressure;BME280_temperature;BME280_humidity;BME280_pressure;Samples;Min_cycle;Max_cycle;Signal;HPM_P1;HPM_P2
2021/07/10 00:01:14;;;;;;;6.00;4.50;;;16.30;99.90;;;;;;4997395;28;20184;-84
2021/07/10 00:03:40;;;;;;;6.87;4.50;;;16.30;99.90;;;;;;4996533;28;20180;-84
2021/07/10 00:06:06;;;;;;;5.97;4.30;;;16.20;99.90;;;;;;4996261;28;20598;-84
2021/07/10 00:08:32;;;;;;;9.27;4.73;;;16.20;99.90;;;;;;4998308;28;20203;-84
2021/07/10 00:10:57;;;;;;;6.33;4.77;;;16.20;99.90;;;;;;4996791;28;20180;-84
2021/07/10 00:13:23;;;;;;;7.03;5.63;;;16.10;99.90;;;;;;4982324;28;20335;-84
2021/07/10 00:15:49;;;;;;;6.40;5.13;;;16.20;99.90;;;;;;4998809;28;20232;-84
2021/07/10 00:18:14;;;;;;;7.80;4.97;;;16.10;99.90;;;;;;4998501;28;20624;-84
2021/07/10 00:20:40;;;;;;;9.40;5.17;;;16.10;99.90;;;;;;4999133;28;20179;-82
2021/07/10 00:23:06;;;;;;;6.93;5.03;;;16.10;99.90;;;;;;4998367;28;20185;-84
2021/07/10 00:25:31;;;;;;;7.57;5.23;;;16.10;99.90;;;;;;4998620;28;20447;-84
2021/07/10 00:27:57;;;;;;;6.57;5.10;;;16.00;99.90;;;;;;4998444;28;20668;-84
2021/07/10 00:30:24;;;;;;;6.37;5.30;;;16.00;99.90;;;;;;4997810;28;20263;-84
2021/07/10 00:32:50;;;;;;;7.83;5.23;;;16.00;99.90;;;;;;4997324;28;20184;-83
2021/07/10 00:35:17;;;;;;;9.27;6.07;;;16.00;99.90;;;;;;4996901;28;20238;-84
2021/07/10 00:37:42;;;;;;;7.30;5.73;;;15.90;99.90;;;;;;4997416;28;20197;-83
2021/07/10 00:40:08;;;;;;;7.63;5.53;;;15.90;99.90;;;;;;4997010;28;20181;-83
2021/07/10 00:42:35;;;;;;;7.80;5.47;;;15.90;99.90;;;;;;4997472;28;20250;-84
2021/07/10 00:45:01;;;;;;;8.07;5.43;;;15.90;99.90;;;;;;4996817;28;20251;-83
2021/07/10 00:47:26;;;;;;;7.23;5.10;;;15.80;99.90;;;;;;4996435;28;20200;-84
2021/07/10 00:49:52;;;;;;;6.03;4.83;;;15.80;99.90;;;;;;4997425;28;20191;-84
2021/07/10 00:52:17;;;;;;;6.30;5.30;;;15.80;99.90;;;;;;4996552;28;20654;-84
2021/07/10 00:54:43;;;;;;;6.10;4.63;;;15.70;99.90;;;;;;4996867;28;20219;-83
2021/07/10 00:57:08;;;;;;;7.17;5.10;;;15.70;99.90;;;;;;4997407;28;20290;-84
2021/07/10 00:59:34;;;;;;;6.13;4.73;;;15.70;99.90;;;;;;5012474;28;20183;-84
2021/07/10 01:01:59;;;;;;;7.60;5.23;;;15.60;99.90;;;;;;4997223;28;20188;-84
2021/07/10 01:04:25;;;;;;;6.20;5.20;;;15.60;99.90;;;;;;4996970;28;20231;-84
2021/07/10 01:06:51;;;;;;;7.43;5.60;;;15.60;99.90;;;;;;4996491;28;20218;-83
2021/07/10 01:09:17;;;;;;;7.10;5.77;;;15.60;99.90;;;;;;4997913;28;20267;-84
2021/07/10 01:11:43;;;;;;;7.80;5.40;;;15.60;99.90;;;;;;4980319;28;20217;-84
2021/07/10 01:14:08;;;;;;;6.97;5.00;;;15.60;99.90;;;;;;4996884;28;20278;-84
2021/07/10 01:16:34;;;;;;;7.87;5.40;;;15.60;99.90;;;;;;4997103;28;20202;-84
2021/07/10 01:18:59;;;;;;;6.67;5.07;;;15.60;99.90;;;;;;4995919;28;20182;-83
2021/07/10 01:21:25;;;;;;;6.53;4.53;;;15.50;99.90;;;;;;4996434;28;20184;-83
2021/07/10 01:23:51;;;;;;;6.43;5.37;;;15.50;99.90;;;;;;4995910;28;20184;-84
2021/07/10 01:26:17;;;;;;;8.27;5.87;;;15.50;99.90;;;;;;4996430;28;20180;-84
2021/07/10 01:28:43;;;;;;;8.40;4.87;;;15.50;99.90;;;;;;4996745;28;20287;-84
2021/07/10 01:31:08;;;;;;;6.13;4.83;;;15.40;99.90;;;;;;4996243;28;20655;-84
2021/07/10 01:33:34;;;;;;;6.07;4.90;;;15.40;99.90;;;;;;4994976;28;20211;-84
2021/07/10 01:36:00;;;;;;;6.07;5.17;;;15.30;99.90;;;;;;4994208;28;20538;-83
2021/07/10 01:38:25;;;;;;;7.53;5.50;;;15.30;99.90;;;;;;4994110;28;20193;-84
2021/07/10 01:40:51;;;;;;;7.23;5.60;;;15.30;99.90;;;;;;4994446;28;20183;-84
2021/07/10 01:43:16;;;;;;;7.17;5.17;;;15.30;99.90;;;;;;4994450;28;20180;-84
2021/07/10 01:45:42;;;;;;;6.27;5.10;;;15.30;99.90;;;;;;4994720;28;20546;-83
2021/07/10 01:48:10;;;;;;;7.20;5.53;;;15.30;99.90;;;;;;4994724;28;20199;-83
2021/07/10 01:50:36;;;;;;;7.23;5.03;;;15.20;99.90;;;;;;4994461;28;20684;-84
2021/07/10 01:53:01;;;;;;;5.70;5.00;;;15.20;99.90;;;;;;4994453;28;20263;-84
2021/07/10 01:55:28;;;;;;;7.17;5.80;;;15.20;99.90;;;;;;4996823;28;20207;-83
2021/07/10 01:57:54;;;;;;;7.93;5.57;;;15.10;99.90;;;;;;4998146;28;20219;-83
2021/07/10 02:00:24;;;;;;;6.73;5.50;;;15.00;99.90;;;;;;4997445;28;20172;-83
2021/07/10 02:02:50;;;;;;;8.30;5.67;;;15.00;99.90;;;;;;4997845;28;20180;-83
2021/07/10 02:05:20;;;;;;;8.03;6.10;;;15.00;99.90;;;;;;4997236;28;20187;-83
2021/07/10 02:07:46;;;;;;;7.63;6.20;;;15.00;99.90;;;;;;4997108;28;20247;-83
2021/07/10 02:10:12;;;;;;;7.17;5.93;;;15.00;99.90;;;;;;4997423;28;20180;-83
2021/07/10 02:12:47;;;;;;;7.90;6.07;;;15.00;99.90;;;;;;4998234;28;20187;-83
2021/07/10 02:15:13;;;;;;;7.13;5.90;;;14.90;99.90;;;;;;4997575;28;20707;-83
2021/07/10 02:17:38;;;;;;;8.33;6.20;;;14.90;99.90;;;;;;4996947;28;20266;-83
2021/07/10 02:20:05;;;;;;;7.30;5.77;;;14.90;99.90;;;;;;4997050;28;20179;-83
2021/07/10 02:22:31;;;;;;;7.90;6.57;;;14.80;99.90;;;;;;4997733;28;20172;-83
2021/07/10 02:24:56;;;;;;;8.07;6.07;;;14.90;99.90;;;;;;4997035;28;20180;-83
2021/07/10 02:29:09;;;;;;;9.20;6.17;;;14.80;99.90;;;;;;5096160;28;21047;-81
2021/07/10 02:31:35;;;;;;;7.40;6.27;;;14.90;99.90;;;;;;5111921;28;20231;-82
2021/07/10 02:34:01;;;;;;;9.17;6.20;;;14.90;99.90;;;;;;5094867;28;20177;-82
2021/07/10 02:36:26;;;;;;;8.83;6.53;;;14.80;99.90;;;;;;5091490;28;20201;-81
2021/07/10 02:38:52;;;;;;;8.97;6.53;;;14.80;99.90;;;;;;5073609;28;20673;-84
2021/07/10 02:41:17;;;;;;;9.67;6.47;;;14.80;99.90;;;;;;5075359;28;20640;-82
2021/07/10 02:43:43;;;;;;;8.93;6.63;;;14.80;99.90;;;;;;5075199;28;20192;-82
2021/07/10 02:46:08;;;;;;;7.50;6.60;;;14.80;99.90;;;;;;5074566;28;20280;-81
2021/07/10 02:48:34;;;;;;;8.10;5.73;;;14.80;99.90;;;;;;5075117;28;20225;-81
2021/07/10 02:51:00;;;;;;;6.50;5.53;;;14.70;99.90;;;;;;5074850;28;20185;-81
2021/07/10 02:53:25;;;;;;;8.47;6.33;;;14.80;99.90;;;;;;5075571;28;20181;-82
2021/07/10 02:55:51;;;;;;;7.53;5.73;;;14.70;99.90;;;;;;5075025;28;20573;-82
2021/07/10 02:58:16;;;;;;;7.70;6.20;;;14.60;99.90;;;;;;5075186;28;20593;-82
2021/07/10 03:00:45;;;;;;;8.77;6.07;;;14.70;99.90;;;;;;5073713;28;20245;-82
2021/07/10 03:03:11;;;;;;;8.60;6.47;;;14.60;99.90;;;;;;5074469;28;20280;-81
2021/07/10 03:05:37;;;;;;;8.93;6.90;;;14.60;99.90;;;;;;5075246;28;20217;-82
2021/07/10 03:08:04;;;;;;;8.57;6.77;;;14.60;99.90;;;;;;5074336;28;20218;-82
2021/07/10 03:10:29;;;;;;;9.93;6.50;;;14.60;99.90;;;;;;5074180;28;20180;-82
2021/07/10 03:12:55;;;;;;;7.43;5.77;;;14.60;99.90;;;;;;5075097;28;20637;-82
2021/07/10 03:15:22;;;;;;;7.70;6.30;;;14.60;99.90;;;;;;5074379;28;20178;-81
2021/07/10 03:17:48;;;;;;;8.20;5.97;;;14.50;99.90;;;;;;5074141;28;20205;-81
2021/07/10 03:20:14;;;;;;;6.63;5.80;;;14.50;99.90;;;;;;5073592;28;20182;-82
2021/07/10 03:22:39;;;;;;;9.07;6.60;;;14.50;99.90;;;;;;5073717;28;20181;-82
2021/07/10 03:25:06;;;;;;;8.77;6.13;;;14.50;99.90;;;;;;5073561;28;20549;-82
2021/07/10 03:27:31;;;;;;;9.40;6.77;;;14.40;99.90;;;;;;5056537;28;20308;-81
2021/07/10 03:29:57;;;;;;;7.43;6.10;;;14.40;99.90;;;;;;5073047;28;20197;-82
2021/07/10 03:32:23;;;;;;;7.53;6.07;;;14.40;99.90;;;;;;5073651;28;20186;-82
2021/07/10 03:34:48;;;;;;;11.73;6.83;;;14.40;99.90;;;;;;5073914;28;20200;-82
2021/07/10 03:37:14;;;;;;;10.37;6.67;;;14.40;99.90;;;;;;5072990;28;20201;-82
2021/07/10 03:39:39;;;;;;;9.93;7.00;;;14.40;99.90;;;;;;5063970;28;20178;-82
2021/07/10 03:42:05;;;;;;;9.30;7.00;;;14.50;99.90;;;;;;5060430;28;20185;-82
2021/07/10 03:44:30;;;;;;;12.77;7.10;;;14.40;99.90;;;;;;5060351;28;20191;-82
2021/07/10 03:46:56;;;;;;;10.17;6.93;;;14.50;99.90;;;;;;5042982;28;20344;-82
2021/07/10 03:49:22;;;;;;;8.87;6.60;;;14.50;99.90;;;;;;5060273;28;20189;-84
2021/07/10 03:51:48;;;;;;;9.53;6.83;;;14.50;99.90;;;;;;5043599;28;20174;-82
2021/07/10 03:54:13;;;;;;;9.40;6.27;;;14.50;99.90;;;;;;5060527;28;20174;-82
2021/07/10 03:56:39;;;;;;;9.80;6.37;;;14.50;99.90;;;;;;5059601;28;20241;-82
2021/07/10 03:59:04;;;;;;;8.77;6.33;;;14.50;99.90;;;;;;5059494;28;20197;-82
2021/07/10 04:01:32;;;;;;;8.40;6.83;;;14.50;99.90;;;;;;5059582;28;20178;-82
2021/07/10 04:03:58;;;;;;;13.30;7.37;;;14.50;99.90;;;;;;5059455;28;20237;-82
2021/07/10 04:06:23;;;;;;;9.93;6.90;;;14.50;99.90;;;;;;5059661;28;20684;-81
2021/07/10 04:08:49;;;;;;;10.03;6.93;;;14.50;99.90;;;;;;5058832;28;20210;-84
2021/07/10 04:11:14;;;;;;;8.80;7.43;;;14.50;99.90;;;;;;5057627;28;20174;-82
2021/07/10 04:13:40;;;;;;;7.83;6.67;;;14.60;99.90;;;;;;5059292;28;20170;-82
2021/07/10 04:16:05;;;;;;;11.50;7.80;;;14.70;99.90;;;;;;5059018;28;20232;-81
2021/07/10 04:18:32;;;;;;;10.47;7.37;;;14.70;99.90;;;;;;5058824;28;20189;-81
2021/07/10 04:20:57;;;;;;;9.13;7.47;;;14.70;99.90;;;;;;5058606;28;20285;-82
2021/07/10 04:23:25;;;;;;;11.53;7.83;;;14.70;99.90;;;;;;5059065;28;20236;-82
2021/07/10 04:25:51;;;;;;;9.90;8.27;;;14.70;99.90;;;;;;5057637;28;20174;-81
2021/07/10 04:28:16;;;;;;;11.03;7.27;;;14.80;99.90;;;;;;5057615;28;20214;-82
2021/07/10 04:30:42;;;;;;;9.40;7.60;;;14.80;99.90;;;;;;5056825;28;20193;-83
2021/07/10 04:33:08;;;;;;;11.00;7.43;;;14.80;99.90;;;;;;5039216;28;20179;-84
2021/07/10 04:35:33;;;;;;;8.70;7.13;;;14.80;99.90;;;;;;5056034;28;20261;-84
2021/07/10 04:37:59;;;;;;;9.33;6.93;;;14.90;99.90;;;;;;5039280;28;20268;-83
2021/07/10 04:40:25;;;;;;;9.03;6.43;;;14.90;99.90;;;;;;5055855;28;20178;-84
2021/07/10 04:42:50;;;;;;;10.87;7.80;;;15.00;99.90;;;;;;5055413;28;20179;-84
2021/07/10 04:45:16;;;;;;;9.87;7.10;;;15.00;99.90;;;;;;5056094;28;20214;-84
2021/07/10 04:47:42;;;;;;;10.70;7.77;;;15.00;99.90;;;;;;5056157;28;20252;-84
2021/07/10 04:50:08;;;;;;;10.60;8.33;;;15.10;99.90;;;;;;5055785;28;20327;-84
2021/07/10 04:52:34;;;;;;;10.90;8.10;;;15.20;99.90;;;;;;5055441;28;20200;-83
2021/07/10 04:54:59;;;;;;;10.97;8.50;;;15.20;99.90;;;;;;5056263;28;20641;-83
2021/07/10 04:57:25;;;;;;;9.73;8.03;;;15.30;99.90;;;;;;5055523;28;20287;-84
2021/07/10 04:59:51;;;;;;;12.67;9.43;;;15.30;99.90;;;;;;5056899;28;20186;-84
2021/07/10 05:02:16;;;;;;;12.47;9.40;;;15.40;99.90;;;;;;5056904;28;20185;-84
2021/07/10 05:04:42;;;;;;;13.70;10.00;;;15.60;99.90;;;;;;5057236;28;20415;-84
2021/07/10 05:07:07;;;;;;;11.73;9.10;;;15.70;99.90;;;;;;5062498;22;20633;-72
2021/07/10 05:09:33;;;;;;;13.00;9.53;;;15.80;99.90;;;;;;5009019;28;20179;-72
2021/07/10 05:11:58;;;;;;;15.33;10.23;;;15.80;99.90;;;;;;5009035;28;20192;-72
2021/07/10 05:14:24;;;;;;;12.20;9.83;;;15.90;99.90;;;;;;4993936;28;20172;-72
2021/07/10 05:16:50;;;;;;;14.10;10.17;;;16.00;99.90;;;;;;5008851;28;20565;-72
2021/07/10 05:19:16;;;;;;;14.47;9.70;;;16.00;99.90;;;;;;4992311;28;20207;-72
2021/07/10 05:21:41;;;;;;;17.07;11.17;;;16.10;99.90;;;;;;4992691;28;20680;-72
2021/07/10 05:24:07;;;;;;;14.93;10.80;;;16.10;99.90;;;;;;4992521;28;20252;-72
2021/07/10 05:26:32;;;;;;;14.47;10.83;;;16.10;99.90;;;;;;4993713;28;20263;-72
2021/07/10 05:28:58;;;;;;;14.23;11.17;;;16.20;99.90;;;;;;4992210;28;20211;-72
2021/07/10 05:31:24;;;;;;;14.73;11.10;;;16.30;99.90;;;;;;4992735;28;20184;-72
2021/07/10 05:33:49;;;;;;;14.20;10.53;;;16.50;99.90;;;;;;4992526;28;20291;-72
2021/07/10 05:36:15;;;;;;;14.13;11.30;;;16.60;99.90;;;;;;4976255;28;20670;-72
2021/07/10 05:38:40;;;;;;;14.83;11.10;;;16.80;99.90;;;;;;4976155;28;20679;-72
2021/07/10 05:41:06;;;;;;;14.13;10.20;;;17.00;99.90;;;;;;4976240;28;20655;-72
2021/07/10 05:43:31;;;;;;;15.17;11.40;;;17.20;99.90;;;;;;4976375;28;20648;-72
2021/07/10 05:45:57;;;;;;;16.50;11.17;;;17.20;99.90;;;;;;4992491;28;20608;-72
2021/07/10 05:48:22;;;;;;;15.67;11.27;;;17.60;99.90;;;;;;4975926;28;20680;-72
2021/07/10 05:50:48;;;;;;;16.20;10.77;;;18.40;99.90;;;;;;4975859;28;20176;-72
2021/07/10 05:53:14;;;;;;;14.33;10.60;;;19.10;99.90;;;;;;4992078;28;20184;-72
2021/07/10 05:55:40;;;;;;;15.10;10.40;;;19.60;99.90;;;;;;4991971;28;20263;-72
2021/07/10 05:58:05;;;;;;;15.00;10.93;;;19.90;99.90;;;;;;4993190;28;20203;-72
2021/07/10 06:00:32;;;;;;;12.73;10.03;;;20.00;99.90;;;;;;4975837;28;20649;-72
2021/07/10 06:02:58;;;;;;;13.37;10.07;;;20.00;99.90;;;;;;4975852;28;20180;-72
2021/07/10 06:05:25;;;;;;;13.97;10.17;;;20.20;99.90;;;;;;4975973;28;20184;-72
2021/07/10 06:07:51;;;;;;;12.20;9.30;;;20.30;99.90;;;;;;4991909;28;20231;-73
2021/07/10 06:10:17;;;;;;;15.17;9.53;;;20.40;99.90;;;;;;5007947;28;20176;-72
2021/07/10 06:12:43;;;;;;;13.67;10.33;;;20.70;99.90;;;;;;4991870;28;20180;-72
2021/07/10 06:15:09;;;;;;;13.10;9.23;;;20.90;99.90;;;;;;4975647;28;20176;-72
2021/07/10 06:17:34;;;;;;;13.90;9.30;;;21.50;99.90;;;;;;5008002;28;20204;-72
2021/07/10 06:20:00;;;;;;;13.23;9.57;;;21.90;99.90;;;;;;5007685;28;20207;-73
2021/07/10 06:22:25;;;;;;;14.03;9.93;;;22.50;99.90;;;;;;4991717;28;20263;-73
2021/07/10 06:24:51;;;;;;;12.87;9.37;;;22.70;99.90;;;;;;4991546;28;20226;-72
2021/07/10 06:27:17;;;;;;;15.93;10.03;;;22.70;99.90;;;;;;5007872;28;20235;-72
2021/07/10 06:29:43;;;;;;;17.30;10.40;;;22.90;99.90;;;;;;4991419;28;20172;-72
2021/07/10 06:32:09;;;;;;;13.70;9.63;;;23.10;99.90;;;;;;4959332;28;20674;-73
2021/07/10 06:34:35;;;;;;;16.33;10.33;;;23.00;99.90;;;;;;4993163;28;20207;-73
2021/07/10 06:37:00;;;;;;;14.10;10.30;;;22.90;99.90;;;;;;4975370;28;20192;-73
2021/07/10 06:39:26;;;;;;;14.90;9.87;;;22.60;99.90;;;;;;4991164;28;20541;-73
2021/07/10 06:41:51;;;;;;;14.98;10.60;;;22.30;99.90;;;;;;4992596;28;20593;-73
2021/07/10 06:44:17;;;;;;;14.17;10.63;;;22.30;99.90;;;;;;4991607;28;20590;-73
2021/07/10 06:46:43;;;;;;;16.03;11.77;;;22.30;99.90;;;;;;4959206;28;20188;-73
2021/07/10 06:49:08;;;;;;;17.27;11.60;;;22.10;99.90;;;;;;4991326;28;20287;-72
2021/07/10 06:51:34;;;;;;;17.80;11.90;;;22.10;99.90;;;;;;4975383;28;20543;-72
2021/07/10 06:54:00;;;;;;;17.03;12.00;;;22.40;99.90;;;;;;4991443;28;20176;-72
2021/07/10 06:56:25;;;;;;;17.67;11.90;;;22.50;99.90;;;;;;4991329;28;20176;-72
2021/07/10 06:58:51;;;;;;;16.90;11.87;;;22.30;99.90;;;;;;4991093;28;20176;-72
2021/07/10 07:01:16;;;;;;;15.77;11.97;;;22.30;99.90;;;;;;4959154;28;20186;-72
2021/07/10 07:03:42;;;;;;;18.23;12.60;;;22.10;99.90;;;;;;4992518;28;20191;-72
2021/07/10 07:06:07;;;;;;;18.90;12.07;;;22.00;99.90;;;;;;4992503;28;20176;-72
2021/07/10 07:08:33;;;;;;;20.43;13.73;;;22.10;99.90;;;;;;4992153;28;20242;-72
2021/07/10 07:10:58;;;;;;;17.43;12.30;;;22.10;99.90;;;;;;4991024;28;20199;-72
2021/07/10 07:13:24;;;;;;;15.90;11.53;;;22.20;99.90;;;;;;4992425;28;20177;-72
2021/07/10 07:15:49;;;;;;;21.43;12.63;;;22.40;99.90;;;;;;4994487;28;20179;-72
2021/07/10 07:18:15;;;;;;;21.30;12.67;;;22.60;99.90;;;;;;4996155;28;20207;-72
2021/07/10 07:20:42;;;;;;;17.13;12.33;;;22.90;99.90;;;;;;4995824;28;20176;-72
2021/07/10 07:23:08;;;;;;;18.60;13.03;;;23.00;99.90;;;;;;4994777;28;20176;-73
2021/07/10 07:25:34;;;;;;;16.47;12.13;;;23.00;99.90;;;;;;4994728;28;20200;-72
2021/07/10 07:28:00;;;;;;;21.00;12.77;;;23.30;99.90;;;;;;4994671;28;20235;-72
2021/07/10 07:30:25;;;;;;;20.10;12.83;;;23.60;99.90;;;;;;4994312;28;20574;-72
2021/07/10 07:32:51;;;;;;;17.52;11.90;;;23.80;99.90;;;;;;4994651;28;20176;-72
2021/07/10 07:35:17;;;;;;;16.90;11.90;;;24.20;99.90;;;;;;4994591;28;20172;-73
2021/07/10 07:37:43;;;;;;;15.32;11.10;;;24.30;99.90;;;;;;4978300;28;20203;-72
2021/07/10 07:40:10;;;;;;;15.50;10.90;;;24.40;99.90;;;;;;4978359;28;20173;-73
2021/07/10 07:42:36;;;;;;;17.23;11.70;;;24.50;99.90;;;;;;4962592;28;20276;-73
2021/07/10 07:45:02;;;;;;;17.57;12.00;;;24.60;99.90;;;;;;4962065;28;20260;-73
2021/07/10 07:47:28;;;;;;;17.57;12.47;;;24.40;99.90;;;;;;5010437;28;20287;-72
2021/07/10 07:49:53;;;;;;;15.60;11.03;;;24.50;99.90;;;;;;4994310;28;20272;-72
2021/07/10 07:52:19;;;;;;;15.00;10.43;;;24.40;99.90;;;;;;4994438;28;20714;-72
2021/07/10 07:54:44;;;;;;;12.97;9.93;;;24.10;99.90;;;;;;4994254;28;20298;-72
2021/07/10 07:57:10;;;;;;;14.17;10.30;;;23.80;99.90;;;;;;4994285;28;20220;-72
2021/07/10 07:59:35;;;;;;;14.60;10.90;;;23.60;99.90;;;;;;4995317;28;20652;-72
2021/07/10 08:02:01;;;;;;;16.33;10.75;;;23.80;99.90;;;;;;4994212;28;20659;-73
2021/07/10 08:04:26;;;;;;;14.13;10.23;;;24.00;99.90;;;;;;4995440;28;20173;-72
2021/07/10 08:06:52;;;;;;;15.13;10.10;;;24.20;99.90;;;;;;4993754;28;20628;-72
2021/07/10 08:09:18;;;;;;;11.90;8.50;;;24.20;99.90;;;;;;4993881;28;20215;-73
2021/07/10 08:11:44;;;;;;;10.17;7.80;;;24.20;99.90;;;;;;5010503;28;20180;-72
2021/07/10 08:14:09;;;;;;;11.07;8.10;;;24.20;99.90;;;;;;5010422;28;20180;-72
2021/07/10 08:16:35;;;;;;;11.23;7.87;;;24.40;99.90;;;;;;5009995;28;20199;-73
2021/07/10 08:19:00;;;;;;;12.63;8.30;;;24.60;99.90;;;;;;5009823;28;20307;-72
2021/07/10 08:21:27;;;;;;;12.03;8.50;;;24.60;99.90;;;;;;4994765;28;20230;-72
2021/07/10 08:23:53;;;;;;;12.27;8.43;;;24.40;99.90;;;;;;5009892;28;20322;-72
2021/07/10 08:26:19;;;;;;;10.82;7.50;;;24.40;99.90;;;;;;5009692;28;20188;-72
2021/07/10 08:28:44;;;;;;;13.30;9.00;;;24.40;99.90;;;;;;4994621;28;20208;-72
2021/07/10 08:31:10;;;;;;;12.15;8.45;;;24.50;99.90;;;;;;5010178;28;20666;-73
2021/07/10 08:33:36;;;;;;;12.90;8.95;;;24.60;99.90;;;;;;4994662;28;20169;-72
2021/07/10 08:36:02;;;;;;;11.77;8.95;;;24.50;99.90;;;;;;4994655;28;20168;-73
2021/07/10 08:38:27;;;;;;;15.90;9.53;;;24.40;99.90;;;;;;5009494;28;20284;-72
2021/07/10 08:40:53;;;;;;;10.77;8.67;;;24.10;99.90;;;;;;4994546;28;20589;-73
2021/07/10 08:43:19;;;;;;;12.63;7.77;;;23.70;99.90;;;;;;5009665;28;20680;-73
2021/07/10 08:45:46;;;;;;;12.20;8.07;;;23.50;99.90;;;;;;5009428;28;20207;-73
2021/07/10 08:48:12;;;;;;;11.47;8.47;;;23.40;99.90;;;;;;5009184;28;20310;-73
2021/07/10 08:50:37;;;;;;;13.20;8.57;;;23.50;99.90;;;;;;5010373;28;20280;-72
2021/07/10 08:53:03;;;;;;;10.90;8.00;;;23.40;99.90;;;;;;5009533;28;20175;-72
2021/07/10 08:55:28;;;;;;;14.20;8.47;;;23.50;99.90;;;;;;5009398;28;20175;-73
2021/07/10 08:57:54;;;;;;;8.57;6.37;;;23.50;99.90;;;;;;4992908;28;20211;-73
2021/07/10 09:00:25;;;;;;;8.07;6.47;;;23.50;99.90;;;;;;5009138;28;20314;-73
2021/07/10 09:02:52;;;;;;;8.77;6.00;;;23.30;99.90;;;;;;5009300;28;20258;-73
2021/07/10 09:05:18;;;;;;;9.10;5.53;;;23.20;99.90;;;;;;4992982;28;20515;-73
2021/07/10 09:08:21;;;;;;;9.17;5.00;;;23.20;99.90;;;;;;5009092;28;20339;-73
2021/07/10 09:10:53;;;;;;;6.23;4.90;;;23.40;99.90;;;;;;4993877;28;20172;-72
2021/07/10 09:13:20;;;;;;;9.40;5.60;;;23.60;99.90;;;;;;4994091;28;20179;-72
2021/07/10 09:15:45;;;;;;;8.70;5.43;;;23.80;99.90;;;;;;4992527;28;20222;-73
2021/07/10 09:18:12;;;;;;;5.47;4.33;;;23.90;99.90;;;;;;5008917;28;20275;-72
2021/07/10 09:20:38;;;;;;;7.40;4.87;;;24.10;99.90;;;;;;5008693;28;20691;-72
2021/07/10 09:23:31;;;;;;;7.37;4.90;;;24.20;99.90;;;;;;4992612;28;20181;-73
2021/07/10 09:26:22;;;;;;;10.53;6.63;;;24.10;99.90;;;;;;5007610;28;20180;-72
2021/07/10 09:29:06;;;;;;;7.10;5.60;;;24.20;99.90;;;;;;4993410;28;20200;-72
2021/07/10 09:31:35;;;;;;;7.63;6.23;;;24.10;99.90;;;;;;5008641;28;20179;-72
2021/07/10 09:34:04;;;;;;;9.63;6.27;;;24.10;99.90;;;;;;4992388;28;20168;-73
2021/07/10 09:36:30;;;;;;;6.70;5.40;;;24.10;99.90;;;;;;4991868;28;20311;-72
2021/07/10 09:38:55;;;;;;;8.53;5.40;;;24.20;99.90;;;;;;4993204;28;20663;-73
2021/07/10 09:41:26;;;;;;;7.43;5.18;;;24.20;99.90;;;;;;5008634;28;20183;-73
2021/07/10 09:43:56;;;;;;;8.70;5.87;;;24.20;99.90;;;;;;5008650;28;20183;-72
2021/07/10 09:46:27;;;;;;;6.37;5.17;;;24.20;99.90;;;;;;5007864;28;20172;-72
2021/07/10 09:48:53;;;;;;;7.22;5.22;;;24.30;99.90;;;;;;4993484;28;20207;-72
2021/07/10 09:51:19;;;;;;;7.40;5.20;;;24.40;99.90;;;;;;5008153;28;20184;-72
2021/07/10 09:54:06;;;;;;;9.02;5.93;;;24.50;99.90;;;;;;5008597;28;20227;-72
2021/07/10 09:56:34;;;;;;;6.95;5.45;;;24.50;99.90;;;;;;4993229;28;20176;-73
2021/07/10 09:58:59;;;;;;;7.57;5.15;;;24.20;99.90;;;;;;4991784;28;20189;-72
2021/07/10 10:01:35;;;;;;;6.97;5.25;;;23.90;99.90;;;;;;5008191;28;20192;-72
2021/07/10 10:04:01;;;;;;;7.07;4.47;;;23.70;99.90;;;;;;5008544;28;20176;-72
2021/07/10 10:06:31;;;;;;;4.93;3.80;;;23.60;99.90;;;;;;5008148;28;20183;-72
2021/07/10 10:09:02;;;;;;;5.13;3.60;;;23.50;99.90;;;;;;4991744;28;20208;-72
2021/07/10 10:11:51;;;;;;;3.90;3.38;;;23.50;99.90;;;;;;4991949;28;20601;-73
2021/07/10 10:14:17;;;;;;;4.82;3.50;;;23.30;99.90;;;;;;5008098;28;20204;-73
2021/07/10 10:16:46;;;;;;;3.73;3.10;;;23.10;99.90;;;;;;4991785;28;20220;-72
2021/07/10 10:19:20;;;;;;;3.87;2.73;;;23.00;99.90;;;;;;4991423;28;20180;-72
2021/07/10 10:21:48;;;;;;;3.30;3.00;;;23.00;99.90;;;;;;4991993;28;20382;-72
2021/07/10 10:24:14;;;;;;;4.73;3.00;;;23.00;99.90;;;;;;5008087;28;20553;-73
2021/07/10 10:26:40;;;;;;;4.30;3.10;;;23.00;99.90;;;;;;5007998;28;20196;-74
2021/07/10 10:29:07;;;;;;;3.80;2.83;;;23.00;99.90;;;;;;5007703;28;20231;-72
2021/07/10 10:31:32;;;;;;;4.38;3.53;;;23.10;99.90;;;;;;5007834;28;20227;-71
2021/07/10 10:33:58;;;;;;;5.73;3.80;;;23.10;99.90;;;;;;5007884;28;20172;-71
2021/07/10 10:36:24;;;;;;;4.40;3.70;;;23.30;99.90;;;;;;5007783;28;20184;-72
2021/07/10 10:38:50;;;;;;;4.87;3.67;;;23.40;99.90;;;;;;5007662;28;20774;-72
2021/07/10 10:41:17;;;;;;;6.70;4.37;;;23.60;99.90;;;;;;4992623;28;20180;-71
2021/07/10 10:43:42;;;;;;;4.57;3.50;;;23.80;99.90;;;;;;4992671;28;20303;-72
2021/07/10 10:46:15;;;;;;;6.70;3.60;;;24.00;99.90;;;;;;4991456;28;20255;-71
2021/07/10 10:48:41;;;;;;;4.63;3.60;;;24.20;99.90;;;;;;5007392;28;20215;-71
2021/07/10 10:51:31;;;;;;;4.10;3.25;;;24.30;99.90;;;;;;5011867;28;20211;-72
2021/07/10 10:54:23;;;;;;;6.07;3.33;;;24.50;99.90;;;;;;5011618;28;20566;-71
2021/07/10 10:56:48;;;;;;;6.13;3.27;;;24.60;99.90;;;;;;4996545;28;20667;-71
2021/07/10 10:59:32;;;;;;;3.47;3.10;;;24.50;99.90;;;;;;5011234;28;20184;-72
2021/07/10 11:01:58;;;;;;;5.73;3.50;;;24.40;99.90;;;;;;4996233;28;20259;-71
2021/07/10 11:04:45;;;;;;;4.15;3.45;;;24.30;99.90;;;;;;5011581;28;20594;-71
2021/07/10 11:07:30;;;;;;;4.10;3.17;;;24.10;99.90;;;;;;5018664;22;20210;-84
2021/07/10 11:10:02;;;;;;;3.60;2.87;;;24.20;99.90;;;;;;4982364;28;20188;-84
2021/07/10 11:12:49;;;;;;;3.67;2.70;;;24.20;99.90;;;;;;4999432;28;20195;-84
2021/07/10 11:15:32;;;;;;;3.00;2.60;;;24.30;99.90;;;;;;5001067;28;20179;-83
2021/07/10 11:18:02;;;;;;;3.53;2.90;;;24.50;99.90;;;;;;5000971;28;20693;-84
2021/07/10 11:20:45;;;;;;;5.72;2.67;;;24.60;99.90;;;;;;4968365;28;20188;-84
2021/07/10 11:23:31;;;;;;;6.18;3.00;;;24.70;99.90;;;;;;4983855;28;20168;-84
2021/07/10 11:25:58;;;;;;;5.07;3.00;;;24.80;99.90;;;;;;5001313;28;20255;-84
2021/07/10 11:28:34;;;;;;;3.70;2.53;;;24.70;99.90;;;;;;4983811;28;20203;-84
2021/07/10 11:31:06;;;;;;;3.50;2.47;;;24.60;99.90;;;;;;4984512;28;20204;-84
2021/07/10 11:33:53;;;;;;;4.40;2.30;;;24.50;99.90;;;;;;4967040;28;20177;-83
2021/07/10 11:36:33;;;;;;;3.00;2.20;;;24.40;99.90;;;;;;4998399;28;20255;-83
2021/07/10 11:38:58;;;;;;;3.40;2.50;;;24.40;99.90;;;;;;4999554;28;20172;-84
2021/07/10 11:41:28;;;;;;;3.05;2.50;;;24.40;99.90;;;;;;4968464;28;20204;-83
2021/07/10 11:44:05;;;;;;;4.07;2.87;;;24.40;99.90;;;;;;4968279;28;20242;-84
2021/07/10 11:46:53;;;;;;;3.50;2.63;;;24.40;99.90;;;;;;4969978;28;20271;-84
2021/07/10 11:49:40;;;;;;;7.00;2.77;;;24.50;99.90;;;;;;5000571;28;20207;-83
2021/07/10 11:52:05;;;;;;;3.23;2.67;;;24.50;99.90;;;;;;4999431;28;20179;-84
2021/07/10 11:54:32;;;;;;;5.97;2.90;;;24.30;99.90;;;;;;5000712;28;20173;-84
2021/07/10 11:56:57;;;;;;;3.30;3.00;;;24.30;99.90;;;;;;4967259;28;20192;-83
2021/07/10 11:59:23;;;;;;;4.33;3.10;;;24.20;99.90;;;;;;4965572;28;20180;-83
2021/07/10 12:01:49;;;;;;;3.10;2.60;;;24.20;99.90;;;;;;4982087;28;20326;-84
2021/07/10 12:04:14;;;;;;;4.63;2.87;;;24.20;99.90;;;;;;4967139;28;20191;-84
2021/07/10 12:06:40;;;;;;;3.40;2.83;;;24.20;99.90;;;;;;4968327;28;20223;-84
2021/07/10 12:09:05;;;;;;;4.07;3.00;;;24.10;99.90;;;;;;4967482;28;20670;-84
2021/07/10 12:11:31;;;;;;;4.80;3.70;;;24.10;99.90;;;;;;4966389;28;20176;-84
2021/07/10 12:14:07;;;;;;;4.47;3.20;;;24.20;99.90;;;;;;4968403;28;20188;-83
2021/07/10 12:16:32;;;;;;;4.30;2.93;;;24.20;99.90;;;;;;4967434;28;20204;-84
2021/07/10 12:18:58;;;;;;;5.55;3.08;;;24.30;99.90;;;;;;4967037;28;20538;-84
2021/07/10 12:21:23;;;;;;;3.30;2.90;;;24.20;99.90;;;;;;4984109;28;20604;-84
2021/07/10 12:23:50;;;;;;;4.35;3.10;;;24.30;99.90;;;;;;4967628;28;20181;-84
2021/07/10 12:26:16;;;;;;;3.73;3.00;;;24.40;99.90;;;;;;4981227;28;20192;-84
2021/07/10 12:28:42;;;;;;;3.20;2.90;;;24.40;99.90;;;;;;4981315;28;20750;-84
2021/07/10 12:31:21;;;;;;;3.25;2.95;;;24.40;99.90;;;;;;4982121;28;20212;-84
2021/07/10 12:33:53;;;;;;;5.37;3.30;;;24.30;99.90;;;;;;4979922;28;20179;-83
2021/07/10 12:36:22;;;;;;;4.00;3.10;;;24.30;99.90;;;;;;4980027;28;20227;-84
2021/07/10 12:39:01;;;;;;;4.70;3.33;;;24.20;99.90;;;;;;4995655;28;20700;-84
2021/07/10 12:41:38;;;;;;;5.47;3.63;;;24.10;99.90;;;;;;4996184;28;20658;-83
2021/07/10 12:44:12;;;;;;;4.00;3.57;;;24.10;99.90;;;;;;4980206;28;20209;-83